Terminal Aerodrome Forecast
Issued by NWS Charleston, WV

Current Version | Previous Version | Text Only | Print | Product List | Glossary Off
Versions: 1 2 3 4 5 6 7 8 9 10 11 12 13 14 15 16 17 18 19 20 21 22 23 24 25 26 27 28 29

000
FTUS41 KRLX 281100
TAFHTS
TAF
KHTS 281130Z 2812/2912 25006KT P6SM SCT020
     FM281230 27008KT P6SM BKN020
     FM281500 29010KT P6SM SCT025
     FM281800 29010G15KT P6SM BKN040
     FM290000 32006KT P6SM SCT080
     FM290300 VRB03KT 5SM BR SCT080
     FM290700 VRB03KT 2SM BR SCT040
     FM290900 00000KT 1/2SM FG VV001=

USA.gov is the U.S. government's official web portal to all federal, state and local government web resources and services.